sensor_id;sensor_type;location;lat;lon;timestamp;P1;durP1;ratioP1;P2;durP2;ratioP2
69906;SDS011;57190;47.918;8.112;2022-12-10T00:01:51;25.77;;;17.40;;
69906;SDS011;57190;47.918;8.112;2022-12-10T00:04:17;25.33;;;17.57;;
69906;SDS011;57190;47.918;8.112;2022-12-10T00:06:44;23.50;;;17.43;;
69906;SDS011;57190;47.918;8.112;2022-12-10T00:09:11;22.37;;;16.07;;
69906;SDS011;57190;47.918;8.112;2022-12-10T00:11:39;20.40;;;15.87;;
69906;SDS011;57190;47.918;8.112;2022-12-10T00:14:06;22.17;;;16.23;;
69906;SDS011;57190;47.918;8.112;2022-12-10T00:16:32;21.53;;;15.97;;
69906;SDS011;57190;47.918;8.112;2022-12-10T00:19:01;23.27;;;16.37;;
69906;SDS011;57190;47.918;8.112;2022-12-10T00:21:29;20.67;;;16.00;;
69906;SDS011;57190;47.918;8.112;2022-12-10T00:23:57;22.17;;;16.10;;
69906;SDS011;57190;47.918;8.112;2022-12-10T00:26:27;22.23;;;17.63;;
69906;SDS011;57190;47.918;8.112;2022-12-10T00:28:59;23.40;;;17.40;;
69906;SDS011;57190;47.918;8.112;2022-12-10T00:31:26;23.87;;;17.17;;
69906;SDS011;57190;47.918;8.112;2022-12-10T00:33:54;21.40;;;16.87;;
69906;SDS011;57190;47.918;8.112;2022-12-10T00:36:22;22.43;;;17.20;;
69906;SDS011;57190;47.918;8.112;2022-12-10T00:38:52;24.00;;;17.17;;
69906;SDS011;57190;47.918;8.112;2022-12-10T00:41:18;20.73;;;16.63;;
69906;SDS011;57190;47.918;8.112;2022-12-10T00:43:44;22.50;;;16.67;;
69906;SDS011;57190;47.918;8.112;2022-12-10T00:46:10;21.77;;;17.40;;
69906;SDS011;57190;47.918;8.112;2022-12-10T00:48:37;21.33;;;15.73;;
69906;SDS011;57190;47.918;8.112;2022-12-10T00:53:31;25.20;;;18.03;;
69906;SDS011;57190;47.918;8.112;2022-12-10T00:55:58;23.63;;;18.27;;
69906;SDS011;57190;47.918;8.112;2022-12-10T00:58:28;19.40;;;15.83;;
69906;SDS011;57190;47.918;8.112;2022-12-10T01:01:06;23.07;;;16.83;;
69906;SDS011;57190;47.918;8.112;2022-12-10T01:03:36;23.60;;;16.47;;
69906;SDS011;57190;47.918;8.112;2022-12-10T01:06:18;21.63;;;16.23;;
69906;SDS011;57190;47.918;8.112;2022-12-10T01:08:46;20.50;;;16.17;;
69906;SDS011;57190;47.918;8.112;2022-12-10T01:11:13;21.60;;;16.70;;
69906;SDS011;57190;47.918;8.112;2022-12-10T01:13:40;21.83;;;16.03;;
69906;SDS011;57190;47.918;8.112;2022-12-10T01:16:07;23.40;;;17.20;;
69906;SDS011;57190;47.918;8.112;2022-12-10T01:18:35;19.63;;;15.80;;
69906;SDS011;57190;47.918;8.112;2022-12-10T01:21:05;19.67;;;15.93;;
69906;SDS011;57190;47.918;8.112;2022-12-10T01:23:32;18.60;;;14.63;;
69906;SDS011;57190;47.918;8.112;2022-12-10T01:26:00;18.57;;;15.03;;
69906;SDS011;57190;47.918;8.112;2022-12-10T01:28:28;20.80;;;16.00;;
69906;SDS011;57190;47.918;8.112;2022-12-10T01:30:54;19.83;;;15.70;;
69906;SDS011;57190;47.918;8.112;2022-12-10T01:33:19;20.77;;;16.23;;
69906;SDS011;57190;47.918;8.112;2022-12-10T01:35:45;18.67;;;15.23;;
69906;SDS011;57190;47.918;8.112;2022-12-10T01:38:10;17.53;;;14.43;;
69906;SDS011;57190;47.918;8.112;2022-12-10T01:40:37;18.80;;;14.63;;
69906;SDS011;57190;47.918;8.112;2022-12-10T01:43:03;19.83;;;15.60;;
69906;SDS011;57190;47.918;8.112;2022-12-10T01:45:28;17.20;;;14.63;;
69906;SDS011;57190;47.918;8.112;2022-12-10T01:47:54;17.50;;;13.70;;
69906;SDS011;57190;47.918;8.112;2022-12-10T01:50:19;19.47;;;15.63;;
69906;SDS011;57190;47.918;8.112;2022-12-10T01:52:45;18.80;;;15.37;;
69906;SDS011;57190;47.918;8.112;2022-12-10T01:58:11;18.73;;;14.77;;
69906;SDS011;57190;47.918;8.112;2022-12-10T02:00:38;17.90;;;14.63;;
69906;SDS011;57190;47.918;8.112;2022-12-10T02:03:13;15.50;;;13.77;;
69906;SDS011;57190;47.918;8.112;2022-12-10T02:05:44;16.53;;;14.07;;
69906;SDS011;57190;47.918;8.112;2022-12-10T02:08:52;17.20;;;14.37;;
69906;SDS011;57190;47.918;8.112;2022-12-10T02:11:19;18.00;;;14.33;;
69906;SDS011;57190;47.918;8.112;2022-12-10T02:13:56;19.90;;;14.10;;
69906;SDS011;57190;47.918;8.112;2022-12-10T02:16:29;19.60;;;15.47;;
69906;SDS011;57190;47.918;8.112;2022-12-10T02:19:14;16.43;;;14.10;;
69906;SDS011;57190;47.918;8.112;2022-12-10T02:21:43;16.07;;;12.80;;
69906;SDS011;57190;47.918;8.112;2022-12-10T02:24:14;15.97;;;13.17;;
69906;SDS011;57190;47.918;8.112;2022-12-10T02:26:47;15.70;;;13.20;;
69906;SDS011;57190;47.918;8.112;2022-12-10T02:29:36;17.83;;;13.47;;
69906;SDS011;57190;47.918;8.112;2022-12-10T02:32:04;15.50;;;12.47;;
69906;SDS011;57190;47.918;8.112;2022-12-10T02:34:52;17.50;;;13.70;;
69906;SDS011;57190;47.918;8.112;2022-12-10T02:37:22;15.47;;;12.93;;
69906;SDS011;57190;47.918;8.112;2022-12-10T02:39:55;18.07;;;15.77;;
69906;SDS011;57190;47.918;8.112;2022-12-10T02:42:22;17.40;;;13.67;;
69906;SDS011;57190;47.918;8.112;2022-12-10T02:44:51;14.93;;;13.07;;
69906;SDS011;57190;47.918;8.112;2022-12-10T02:47:18;18.23;;;13.13;;
69906;SDS011;57190;47.918;8.112;2022-12-10T02:49:45;16.10;;;13.63;;
69906;SDS011;57190;47.918;8.112;2022-12-10T02:52:14;17.10;;;14.50;;
69906;SDS011;57190;47.918;8.112;2022-12-10T02:54:43;17.80;;;13.33;;
69906;SDS011;57190;47.918;8.112;2022-12-10T02:57:32;18.40;;;14.27;;
69906;SDS011;57190;47.918;8.112;2022-12-10T03:00:09;15.83;;;12.57;;
69906;SDS011;57190;47.918;8.112;2022-12-10T03:08:17;15.33;;;13.03;;
69906;SDS011;57190;47.918;8.112;2022-12-10T03:13:13;15.63;;;12.63;;
69906;SDS011;57190;47.918;8.112;2022-12-10T03:15:41;13.77;;;12.17;;
69906;SDS011;57190;47.918;8.112;2022-12-10T03:18:09;15.03;;;13.17;;
69906;SDS011;57190;47.918;8.112;2022-12-10T03:20:37;14.57;;;12.90;;
69906;SDS011;57190;47.918;8.112;2022-12-10T03:23:08;13.37;;;11.97;;
69906;SDS011;57190;47.918;8.112;2022-12-10T03:25:36;15.07;;;13.50;;
69906;SDS011;57190;47.918;8.112;2022-12-10T03:28:04;15.37;;;13.00;;
69906;SDS011;57190;47.918;8.112;2022-12-10T03:30:31;13.57;;;12.13;;
69906;SDS011;57190;47.918;8.112;2022-12-10T03:32:59;14.67;;;12.67;;
69906;SDS011;57190;47.918;8.112;2022-12-10T03:35:25;14.63;;;13.00;;
69906;SDS011;57190;47.918;8.112;2022-12-10T03:37:51;14.40;;;12.90;;
69906;SDS011;57190;47.918;8.112;2022-12-10T03:40:18;14.33;;;12.00;;
69906;SDS011;57190;47.918;8.112;2022-12-10T03:42:46;14.03;;;12.57;;
69906;SDS011;57190;47.918;8.112;2022-12-10T03:45:12;14.73;;;13.17;;
69906;SDS011;57190;47.918;8.112;2022-12-10T03:47:39;14.73;;;13.17;;
69906;SDS011;57190;47.918;8.112;2022-12-10T03:50:05;15.60;;;13.87;;
69906;SDS011;57190;47.918;8.112;2022-12-10T03:52:31;13.50;;;12.00;;
69906;SDS011;57190;47.918;8.112;2022-12-10T03:54:57;14.60;;;13.00;;
69906;SDS011;57190;47.918;8.112;2022-12-10T03:57:22;14.93;;;13.33;;
69906;SDS011;57190;47.918;8.112;2022-12-10T03:59:48;18.53;;;14.73;;
69906;SDS011;57190;47.918;8.112;2022-12-10T04:02:13;15.27;;;12.63;;
69906;SDS011;57190;47.918;8.112;2022-12-10T04:04:39;15.07;;;13.10;;
69906;SDS011;57190;47.918;8.112;2022-12-10T04:07:04;14.40;;;11.73;;
69906;SDS011;57190;47.918;8.112;2022-12-10T04:09:30;14.37;;;12.87;;
69906;SDS011;57190;47.918;8.112;2022-12-10T04:11:59;15.63;;;12.37;;
69906;SDS011;57190;47.918;8.112;2022-12-10T04:14:24;15.20;;;12.77;;
69906;SDS011;57190;47.918;8.112;2022-12-10T04:17:09;16.70;;;13.73;;
69906;SDS011;57190;47.918;8.112;2022-12-10T04:19:34;14.90;;;12.50;;
69906;SDS011;57190;47.918;8.112;2022-12-10T04:22:00;14.97;;;12.03;;
69906;SDS011;57190;47.918;8.112;2022-12-10T04:24:45;15.07;;;12.77;;
69906;SDS011;57190;47.918;8.112;2022-12-10T04:27:30;14.10;;;12.57;;
69906;SDS011;57190;47.918;8.112;2022-12-10T04:29:58;18.23;;;13.33;;
69906;SDS011;57190;47.918;8.112;2022-12-10T04:32:24;14.77;;;12.67;;
69906;SDS011;57190;47.918;8.112;2022-12-10T04:34:51;16.33;;;12.80;;
69906;SDS011;57190;47.918;8.112;2022-12-10T04:37:17;16.77;;;13.63;;
69906;SDS011;57190;47.918;8.112;2022-12-10T04:39:43;14.37;;;12.87;;
69906;SDS011;57190;47.918;8.112;2022-12-10T04:42:10;15.73;;;12.80;;
69906;SDS011;57190;47.918;8.112;2022-12-10T04:44:36;14.60;;;12.57;;
69906;SDS011;57190;47.918;8.112;2022-12-10T04:47:02;15.77;;;13.13;;
69906;SDS011;57190;47.918;8.112;2022-12-10T04:49:29;16.57;;;13.23;;
69906;SDS011;57190;47.918;8.112;2022-12-10T04:51:54;15.37;;;12.53;;
69906;SDS011;57190;47.918;8.112;2022-12-10T04:54:20;15.93;;;12.57;;
69906;SDS011;57190;47.918;8.112;2022-12-10T04:56:46;14.77;;;12.70;;
69906;SDS011;57190;47.918;8.112;2022-12-10T04:59:11;15.20;;;13.00;;
69906;SDS011;57190;47.918;8.112;2022-12-10T05:01:37;15.20;;;12.50;;
69906;SDS011;57190;47.918;8.112;2022-12-10T05:04:04;16.57;;;12.80;;
69906;SDS011;57190;47.918;8.112;2022-12-10T05:06:31;16.67;;;12.63;;
69906;SDS011;57190;47.918;8.112;2022-12-10T05:08:57;15.93;;;12.43;;
69906;SDS011;57190;47.918;8.112;2022-12-10T05:11:23;17.07;;;12.37;;
69906;SDS011;57190;47.918;8.112;2022-12-10T05:13:51;15.87;;;13.77;;
69906;SDS011;57190;47.918;8.112;2022-12-10T05:16:18;15.70;;;12.27;;
69906;SDS011;57190;47.918;8.112;2022-12-10T05:18:45;14.57;;;12.77;;
69906;SDS011;57190;47.918;8.112;2022-12-10T05:21:13;15.17;;;13.40;;
69906;SDS011;57190;47.918;8.112;2022-12-10T05:23:41;15.10;;;12.27;;
69906;SDS011;57190;47.918;8.112;2022-12-10T05:26:09;14.43;;;12.03;;
69906;SDS011;57190;47.918;8.112;2022-12-10T05:28:43;13.80;;;11.90;;
69906;SDS011;57190;47.918;8.112;2022-12-10T05:31:22;14.53;;;12.00;;
69906;SDS011;57190;47.918;8.112;2022-12-10T05:33:49;15.23;;;13.07;;
69906;SDS011;57190;47.918;8.112;2022-12-10T05:36:16;18.20;;;13.37;;
69906;SDS011;57190;47.918;8.112;2022-12-10T05:38:43;16.03;;;13.50;;
69906;SDS011;57190;47.918;8.112;2022-12-10T05:43:39;18.13;;;13.10;;
69906;SDS011;57190;47.918;8.112;2022-12-10T05:46:06;15.90;;;12.53;;
69906;SDS011;57190;47.918;8.112;2022-12-10T05:48:34;14.03;;;12.53;;
69906;SDS011;57190;47.918;8.112;2022-12-10T05:51:04;14.07;;;11.30;;
69906;SDS011;57190;47.918;8.112;2022-12-10T05:53:31;14.67;;;12.37;;
69906;SDS011;57190;47.918;8.112;2022-12-10T05:56:00;14.33;;;12.50;;
69906;SDS011;57190;47.918;8.112;2022-12-10T05:58:27;13.40;;;12.00;;
69906;SDS011;57190;47.918;8.112;2022-12-10T06:00:54;13.60;;;11.93;;
69906;SDS011;57190;47.918;8.112;2022-12-10T06:03:20;14.50;;;11.93;;
69906;SDS011;57190;47.918;8.112;2022-12-10T06:05:46;12.80;;;11.40;;
69906;SDS011;57190;47.918;8.112;2022-12-10T06:08:12;14.87;;;12.07;;
69906;SDS011;57190;47.918;8.112;2022-12-10T06:10:37;13.13;;;11.73;;
69906;SDS011;57190;47.918;8.112;2022-12-10T06:13:03;12.90;;;11.43;;
69906;SDS011;57190;47.918;8.112;2022-12-10T06:15:29;13.10;;;11.67;;
69906;SDS011;57190;47.918;8.112;2022-12-10T06:17:55;13.17;;;10.70;;
69906;SDS011;57190;47.918;8.112;2022-12-10T06:20:22;13.90;;;12.07;;
69906;SDS011;57190;47.918;8.112;2022-12-10T06:22:48;12.57;;;11.23;;
69906;SDS011;57190;47.918;8.112;2022-12-10T06:25:14;11.47;;;10.17;;
69906;SDS011;57190;47.918;8.112;2022-12-10T06:27:40;11.70;;;10.50;;
69906;SDS011;57190;47.918;8.112;2022-12-10T06:30:05;12.00;;;10.50;;
69906;SDS011;57190;47.918;8.112;2022-12-10T06:32:31;11.70;;;10.50;;
69906;SDS011;57190;47.918;8.112;2022-12-10T06:34:57;12.87;;;11.53;;
69906;SDS011;57190;47.918;8.112;2022-12-10T06:37:22;11.50;;;10.30;;
69906;SDS011;57190;47.918;8.112;2022-12-10T06:39:49;11.97;;;10.77;;
69906;SDS011;57190;47.918;8.112;2022-12-10T06:42:16;12.50;;;11.23;;
69906;SDS011;57190;47.918;8.112;2022-12-10T06:44:42;11.53;;;10.37;;
69906;SDS011;57190;47.918;8.112;2022-12-10T06:47:07;11.77;;;10.57;;
69906;SDS011;57190;47.918;8.112;2022-12-10T06:49:33;11.83;;;10.53;;
69906;SDS011;57190;47.918;8.112;2022-12-10T06:51:58;11.70;;;10.33;;
69906;SDS011;57190;47.918;8.112;2022-12-10T06:54:24;11.60;;;10.40;;
69906;SDS011;57190;47.918;8.112;2022-12-10T06:56:49;12.43;;;11.13;;
69906;SDS011;57190;47.918;8.112;2022-12-10T06:59:14;12.27;;;11.00;;
69906;SDS011;57190;47.918;8.112;2022-12-10T07:01:40;11.60;;;10.40;;
69906;SDS011;57190;47.918;8.112;2022-12-10T07:04:06;11.97;;;10.67;;
69906;SDS011;57190;47.918;8.112;2022-12-10T07:06:31;11.63;;;10.43;;
69906;SDS011;57190;47.918;8.112;2022-12-10T07:08:57;12.47;;;11.13;;
69906;SDS011;57190;47.918;8.112;2022-12-10T07:11:23;12.70;;;11.40;;
69906;SDS011;57190;47.918;8.112;2022-12-10T07:13:50;12.83;;;11.53;;
69906;SDS011;57190;47.918;8.112;2022-12-10T07:16:20;11.10;;;10.00;;
69906;SDS011;57190;47.918;8.112;2022-12-10T07:18:48;10.87;;;9.77;;
69906;SDS011;57190;47.918;8.112;2022-12-10T07:23:49;9.37;;;8.50;;
69906;SDS011;57190;47.918;8.112;2022-12-10T07:26:15;9.30;;;8.37;;
69906;SDS011;57190;47.918;8.112;2022-12-10T07:28:41;8.40;;;7.60;;
69906;SDS011;57190;47.918;8.112;2022-12-10T07:31:07;7.50;;;6.80;;
69906;SDS011;57190;47.918;8.112;2022-12-10T07:33:34;7.30;;;6.70;;
69906;SDS011;57190;47.918;8.112;2022-12-10T07:36:08;7.63;;;6.93;;
69906;SDS011;57190;47.918;8.112;2022-12-10T07:38:36;8.00;;;7.30;;
69906;SDS011;57190;47.918;8.112;2022-12-10T07:41:06;6.93;;;6.33;;
69906;SDS011;57190;47.918;8.112;2022-12-10T07:43:37;7.53;;;6.83;;
69906;SDS011;57190;47.918;8.112;2022-12-10T07:46:17;6.80;;;6.20;;
69906;SDS011;57190;47.918;8.112;2022-12-10T07:48:46;5.67;;;5.17;;
69906;SDS011;57190;47.918;8.112;2022-12-10T07:51:12;6.03;;;5.53;;
69906;SDS011;57190;47.918;8.112;2022-12-10T07:53:39;5.30;;;4.80;;
69906;SDS011;57190;47.918;8.112;2022-12-10T07:56:05;5.13;;;4.73;;
69906;SDS011;57190;47.918;8.112;2022-12-10T07:58:31;5.30;;;4.90;;
69906;SDS011;57190;47.918;8.112;2022-12-10T08:00:57;5.40;;;5.00;;
69906;SDS011;57190;47.918;8.112;2022-12-10T08:03:23;5.60;;;5.17;;
69906;SDS011;57190;47.918;8.112;2022-12-10T08:05:49;4.50;;;4.10;;
69906;SDS011;57190;47.918;8.112;2022-12-10T08:08:25;4.90;;;4.50;;
69906;SDS011;57190;47.918;8.112;2022-12-10T08:10:51;4.60;;;4.20;;
69906;SDS011;57190;47.918;8.112;2022-12-10T08:13:16;4.50;;;4.20;;
69906;SDS011;57190;47.918;8.112;2022-12-10T08:15:42;3.87;;;3.57;;
69906;SDS011;57190;47.918;8.112;2022-12-10T08:18:07;4.60;;;4.30;;
69906;SDS011;57190;47.918;8.112;2022-12-10T08:20:33;3.93;;;3.63;;
69906;SDS011;57190;47.918;8.112;2022-12-10T08:22:58;3.53;;;3.27;;
69906;SDS011;57190;47.918;8.112;2022-12-10T08:25:24;3.40;;;3.20;;
69906;SDS011;57190;47.918;8.112;2022-12-10T08:27:50;3.27;;;3.07;;
69906;SDS011;57190;47.918;8.112;2022-12-10T08:30:15;2.97;;;2.77;;
69906;SDS011;57190;47.918;8.112;2022-12-10T08:32:41;2.80;;;2.60;;
69906;SDS011;57190;47.918;8.112;2022-12-10T08:35:06;3.17;;;2.87;;
69906;SDS011;57190;47.918;8.112;2022-12-10T08:37:32;2.70;;;2.60;;
69906;SDS011;57190;47.918;8.112;2022-12-10T08:39:57;3.10;;;2.90;;
69906;SDS011;57190;47.918;8.112;2022-12-10T08:42:23;3.10;;;2.90;;
69906;SDS011;57190;47.918;8.112;2022-12-10T08:44:49;3.60;;;3.40;;
69906;SDS011;57190;47.918;8.112;2022-12-10T08:47:15;3.27;;;3.07;;
69906;SDS011;57190;47.918;8.112;2022-12-10T08:49:41;3.10;;;2.90;;
69906;SDS011;57190;47.918;8.112;2022-12-10T08:52:07;3.27;;;3.07;;
69906;SDS011;57190;47.918;8.112;2022-12-10T08:54:33;2.80;;;2.60;;
69906;SDS011;57190;47.918;8.112;2022-12-10T08:56:58;2.87;;;2.67;;
69906;SDS011;57190;47.918;8.112;2022-12-10T08:59:24;2.80;;;2.60;;
69906;SDS011;57190;47.918;8.112;2022-12-10T09:01:51;3.00;;;2.80;;
69906;SDS011;57190;47.918;8.112;2022-12-10T09:04:16;2.90;;;2.70;;
69906;SDS011;57190;47.918;8.112;2022-12-10T09:06:42;2.90;;;2.70;;
69906;SDS011;57190;47.918;8.112;2022-12-10T09:09:07;3.30;;;3.10;;
69906;SDS011;57190;47.918;8.112;2022-12-10T09:11:33;3.27;;;3.00;;
69906;SDS011;57190;47.918;8.112;2022-12-10T09:13:59;3.40;;;3.10;;
69906;SDS011;57190;47.918;8.112;2022-12-10T09:16:29;3.90;;;3.60;;
69906;SDS011;57190;47.918;8.112;2022-12-10T09:18:55;4.40;;;4.10;;
69906;SDS011;57190;47.918;8.112;2022-12-10T09:21:21;4.30;;;4.00;;
69906;SDS011;57190;47.918;8.112;2022-12-10T09:23:47;4.90;;;4.60;;
69906;SDS011;57190;47.918;8.112;2022-12-10T09:26:13;4.70;;;4.30;;
69906;SDS011;57190;47.918;8.112;2022-12-10T09:28:39;4.70;;;4.40;;
69906;SDS011;57190;47.918;8.112;2022-12-10T09:31:05;5.20;;;4.80;;
69906;SDS011;57190;47.918;8.112;2022-12-10T09:33:31;5.03;;;4.63;;
69906;SDS011;57190;47.918;8.112;2022-12-10T09:35:57;4.40;;;4.10;;
69906;SDS011;57190;47.918;8.112;2022-12-10T09:38:23;4.77;;;3.50;;
69906;SDS011;57190;47.918;8.112;2022-12-10T09:43:23;4.13;;;3.83;;
69906;SDS011;57190;47.918;8.112;2022-12-10T09:46:10;4.47;;;4.07;;
69906;SDS011;57190;47.918;8.112;2022-12-10T09:48:58;4.13;;;3.83;;
69906;SDS011;57190;47.918;8.112;2022-12-10T09:51:55;3.97;;;3.67;;
69906;SDS011;57190;47.918;8.112;2022-12-10T09:54:26;4.23;;;3.93;;
69906;SDS011;57190;47.918;8.112;2022-12-10T09:56:55;3.63;;;3.33;;
69906;SDS011;57190;47.918;8.112;2022-12-10T09:59:24;3.30;;;3.10;;
69906;SDS011;57190;47.918;8.112;2022-12-10T10:02:09;3.33;;;3.13;;
69906;SDS011;57190;47.918;8.112;2022-12-10T10:04:48;3.30;;;3.10;;
69906;SDS011;57190;47.918;8.112;2022-12-10T10:07:23;3.13;;;2.93;;
69906;SDS011;57190;47.918;8.112;2022-12-10T10:09:51;3.17;;;2.97;;
69906;SDS011;57190;47.918;8.112;2022-12-10T10:12:22;2.70;;;2.50;;
69906;SDS011;57190;47.918;8.112;2022-12-10T10:14:47;3.00;;;2.80;;
69906;SDS011;57190;47.918;8.112;2022-12-10T10:17:19;2.73;;;2.53;;
69906;SDS011;57190;47.918;8.112;2022-12-10T10:19:53;3.30;;;3.10;;
69906;SDS011;57190;47.918;8.112;2022-12-10T10:22:18;3.93;;;3.63;;
69906;SDS011;57190;47.918;8.112;2022-12-10T10:24:44;4.70;;;4.30;;
69906;SDS011;57190;47.918;8.112;2022-12-10T10:27:12;4.10;;;3.80;;
69906;SDS011;57190;47.918;8.112;2022-12-10T10:29:43;4.80;;;4.40;;
69906;SDS011;57190;47.918;8.112;2022-12-10T10:32:15;5.00;;;4.60;;
69906;SDS011;57190;47.918;8.112;2022-12-10T10:34:43;5.13;;;4.63;;
69906;SDS011;57190;47.918;8.112;2022-12-10T10:37:19;6.33;;;5.00;;
69906;SDS011;57190;47.918;8.112;2022-12-10T10:39:53;7.90;;;4.77;;
69906;SDS011;57190;47.918;8.112;2022-12-10T10:42:41;5.73;;;5.23;;
69906;SDS011;57190;47.918;8.112;2022-12-10T10:45:50;95.77;;;9.63;;
69906;SDS011;57190;47.918;8.112;2022-12-10T10:48:05;16.97;;;5.47;;
69906;SDS011;57190;47.918;8.112;2022-12-10T10:50:38;19.57;;;5.40;;
69906;SDS011;57190;47.918;8.112;2022-12-10T10:55:50;5.47;;;4.93;;
69906;SDS011;57190;47.918;8.112;2022-12-10T10:58:18;6.40;;;4.07;;
69906;SDS011;57190;47.918;8.112;2022-12-10T11:00:55;4.70;;;4.30;;
69906;SDS011;57190;47.918;8.112;2022-12-10T11:03:27;5.60;;;4.73;;
69906;SDS011;57190;47.918;8.112;2022-12-10T11:05:55;4.03;;;3.73;;
69906;SDS011;57190;47.918;8.112;2022-12-10T11:08:23;4.63;;;4.23;;
69906;SDS011;57190;47.918;8.112;2022-12-10T11:10:52;4.00;;;3.70;;
69906;SDS011;57190;47.918;8.112;2022-12-10T11:13:24;3.83;;;3.53;;
69906;SDS011;57190;47.918;8.112;2022-12-10T11:16:00;4.67;;;4.30;;
69906;SDS011;57190;47.918;8.112;2022-12-10T11:18:36;4.47;;;4.07;;
69906;SDS011;57190;47.918;8.112;2022-12-10T11:21:16;4.00;;;3.70;;
69906;SDS011;57190;47.918;8.112;2022-12-10T11:23:53;4.20;;;3.83;;
69906;SDS011;57190;47.918;8.112;2022-12-10T11:40:33;4.00;;;3.60;;
69906;SDS011;57190;47.918;8.112;2022-12-10T11:43:33;5.13;;;4.43;;
69906;SDS011;57190;47.918;8.112;2022-12-10T11:46:40;4.53;;;4.13;;
69906;SDS011;57190;47.918;8.112;2022-12-10T11:49:24;4.17;;;3.77;;
69906;SDS011;57190;47.918;8.112;2022-12-10T12:03:03;3.37;;;3.07;;
69906;SDS011;57190;47.918;8.112;2022-12-10T12:16:30;2.80;;;2.60;;
69906;SDS011;57190;47.918;8.112;2022-12-10T12:19:05;2.80;;;2.60;;
69906;SDS011;57190;47.918;8.112;2022-12-10T12:21:38;3.03;;;2.73;;
69906;SDS011;57190;47.918;8.112;2022-12-10T12:24:14;3.50;;;3.20;;
69906;SDS011;57190;47.918;8.112;2022-12-10T12:26:52;3.03;;;2.83;;
69906;SDS011;57190;47.918;8.112;2022-12-10T12:29:37;3.53;;;3.23;;
69906;SDS011;57190;47.918;8.112;2022-12-10T12:32:17;3.70;;;3.40;;
69906;SDS011;57190;47.918;8.112;2022-12-10T12:34:49;4.50;;;4.10;;
69906;SDS011;57190;47.918;8.112;2022-12-10T12:37:18;4.10;;;3.80;;
69906;SDS011;57190;47.918;8.112;2022-12-10T12:39:52;6.67;;;6.07;;
69906;SDS011;57190;47.918;8.112;2022-12-10T12:42:52;4.53;;;4.13;;
69906;SDS011;57190;47.918;8.112;2022-12-10T12:51:19;3.70;;;3.40;;
69906;SDS011;57190;47.918;8.112;2022-12-10T12:53:51;4.60;;;4.20;;
69906;SDS011;57190;47.918;8.112;2022-12-10T12:59:04;3.53;;;3.23;;
69906;SDS011;57190;47.918;8.112;2022-12-10T13:04:43;3.77;;;3.47;;
69906;SDS011;57190;47.918;8.112;2022-12-10T13:10:42;2.90;;;2.70;;
69906;SDS011;57190;47.918;8.112;2022-12-10T13:18:39;3.30;;;3.10;;
69906;SDS011;57190;47.918;8.112;2022-12-10T13:21:16;3.17;;;2.93;;
69906;SDS011;57190;47.918;8.112;2022-12-10T13:23:49;3.23;;;3.00;;
69906;SDS011;57190;47.918;8.112;2022-12-10T13:26:26;3.27;;;3.00;;
69906;SDS011;57190;47.918;8.112;2022-12-10T13:28:54;3.13;;;2.93;;
69906;SDS011;57190;47.918;8.112;2022-12-10T13:31:22;2.80;;;2.60;;
69906;SDS011;57190;47.918;8.112;2022-12-10T13:41:32;3.07;;;2.77;;
69906;SDS011;57190;47.918;8.112;2022-12-10T13:44:38;2.87;;;2.67;;
69906;SDS011;57190;47.918;8.112;2022-12-10T13:52:30;3.20;;;3.00;;
69906;SDS011;57190;47.918;8.112;2022-12-10T14:00:39;4.00;;;3.63;;
69906;SDS011;57190;47.918;8.112;2022-12-10T14:04:15;4.10;;;3.73;;
69906;SDS011;57190;47.918;8.112;2022-12-10T14:06:35;4.40;;;4.00;;
69906;SDS011;57190;47.918;8.112;2022-12-10T14:09:08;3.77;;;3.47;;
69906;SDS011;57190;47.918;8.112;2022-12-10T14:11:43;4.20;;;3.80;;
69906;SDS011;57190;47.918;8.112;2022-12-10T14:14:16;3.77;;;3.47;;
69906;SDS011;57190;47.918;8.112;2022-12-10T14:16:48;4.17;;;3.83;;
69906;SDS011;57190;47.918;8.112;2022-12-10T14:19:14;3.97;;;3.67;;
69906;SDS011;57190;47.918;8.112;2022-12-10T14:21:42;4.50;;;4.10;;
69906;SDS011;57190;47.918;8.112;2022-12-10T14:24:52;4.07;;;3.77;;
69906;SDS011;57190;47.918;8.112;2022-12-10T14:27:12;4.00;;;3.70;;
69906;SDS011;57190;47.918;8.112;2022-12-10T14:30:23;4.73;;;4.33;;
69906;SDS011;57190;47.918;8.112;2022-12-10T14:32:32;4.40;;;4.00;;
69906;SDS011;57190;47.918;8.112;2022-12-10T14:35:00;4.60;;;4.20;;
69906;SDS011;57190;47.918;8.112;2022-12-10T14:37:29;5.20;;;4.30;;
69906;SDS011;57190;47.918;8.112;2022-12-10T14:39:58;4.70;;;4.30;;
69906;SDS011;57190;47.918;8.112;2022-12-10T14:42:24;4.43;;;4.13;;
69906;SDS011;57190;47.918;8.112;2022-12-10T14:44:54;4.73;;;4.33;;
69906;SDS011;57190;47.918;8.112;2022-12-10T14:47:23;4.67;;;4.27;;
69906;SDS011;57190;47.918;8.112;2022-12-10T14:49:51;4.60;;;4.20;;
69906;SDS011;57190;47.918;8.112;2022-12-10T14:52:23;4.63;;;4.23;;
69906;SDS011;57190;47.918;8.112;2022-12-10T14:54:50;4.47;;;4.07;;
69906;SDS011;57190;47.918;8.112;2022-12-10T14:57:18;4.13;;;3.83;;
69906;SDS011;57190;47.918;8.112;2022-12-10T15:00:34;4.73;;;4.33;;
69906;SDS011;57190;47.918;8.112;2022-12-10T15:02:41;3.47;;;3.17;;
69906;SDS011;57190;47.918;8.112;2022-12-10T15:07:40;3.77;;;3.47;;
69906;SDS011;57190;47.918;8.112;2022-12-10T15:10:08;4.33;;;4.00;;
69906;SDS011;57190;47.918;8.112;2022-12-10T15:12:45;3.23;;;2.93;;
69906;SDS011;57190;47.918;8.112;2022-12-10T15:15:47;3.40;;;3.10;;
69906;SDS011;57190;47.918;8.112;2022-12-10T15:18:12;3.47;;;3.13;;
69906;SDS011;57190;47.918;8.112;2022-12-10T15:23:20;4.50;;;4.20;;
69906;SDS011;57190;47.918;8.112;2022-12-10T15:25:51;4.23;;;3.93;;
69906;SDS011;57190;47.918;8.112;2022-12-10T15:28:27;4.20;;;3.80;;
69906;SDS011;57190;47.918;8.112;2022-12-10T15:33:58;4.07;;;3.70;;
69906;SDS011;57190;47.918;8.112;2022-12-10T15:36:39;4.97;;;4.53;;
69906;SDS011;57190;47.918;8.112;2022-12-10T15:41:43;4.93;;;4.53;;
69906;SDS011;57190;47.918;8.112;2022-12-10T15:49:23;4.67;;;4.33;;
69906;SDS011;57190;47.918;8.112;2022-12-10T15:51:49;4.83;;;4.43;;
69906;SDS011;57190;47.918;8.112;2022-12-10T15:54:23;5.40;;;4.90;;
69906;SDS011;57190;47.918;8.112;2022-12-10T15:56:57;4.67;;;4.27;;
69906;SDS011;57190;47.918;8.112;2022-12-10T15:59:22;4.90;;;4.50;;
69906;SDS011;57190;47.918;8.112;2022-12-10T16:01:48;5.83;;;5.33;;
69906;SDS011;57190;47.918;8.112;2022-12-10T16:04:14;5.43;;;4.93;;
69906;SDS011;57190;47.918;8.112;2022-12-10T16:06:39;5.63;;;5.13;;
69906;SDS011;57190;47.918;8.112;2022-12-10T16:09:05;5.03;;;4.53;;
69906;SDS011;57190;47.918;8.112;2022-12-10T16:11:31;5.27;;;4.77;;
69906;SDS011;57190;47.918;8.112;2022-12-10T16:13:57;5.30;;;4.83;;
69906;SDS011;57190;47.918;8.112;2022-12-10T16:16:23;5.57;;;5.07;;
69906;SDS011;57190;47.918;8.112;2022-12-10T16:18:50;4.50;;;4.10;;
69906;SDS011;57190;47.918;8.112;2022-12-10T16:21:15;5.03;;;4.60;;
69906;SDS011;57190;47.918;8.112;2022-12-10T16:23:41;4.83;;;4.40;;
69906;SDS011;57190;47.918;8.112;2022-12-10T16:26:28;5.20;;;4.80;;
69906;SDS011;57190;47.918;8.112;2022-12-10T16:28:52;4.73;;;4.33;;
69906;SDS011;57190;47.918;8.112;2022-12-10T16:31:19;4.70;;;4.27;;
69906;SDS011;57190;47.918;8.112;2022-12-10T16:33:46;4.93;;;4.53;;
69906;SDS011;57190;47.918;8.112;2022-12-10T16:36:13;4.57;;;4.17;;
69906;SDS011;57190;47.918;8.112;2022-12-10T16:38:39;4.40;;;4.03;;
69906;SDS011;57190;47.918;8.112;2022-12-10T16:41:18;4.67;;;4.27;;
69906;SDS011;57190;47.918;8.112;2022-12-10T16:43:47;4.57;;;4.17;;
69906;SDS011;57190;47.918;8.112;2022-12-10T16:46:12;4.97;;;4.57;;
69906;SDS011;57190;47.918;8.112;2022-12-10T16:48:38;5.10;;;4.70;;